sensor_id;sensor_type;location;lat;lon;timestamp;P1;durP1;ratioP1;P2;durP2;ratioP2
69170;SDS011;56279;47.902;12.308;2024-02-21T00:00:02;6.75;;;2.70;;
69170;SDS011;56279;47.902;12.308;2024-02-21T00:02:06;5.25;;;2.40;;
69170;SDS011;56279;47.902;12.308;2024-02-21T00:04:07;5.32;;;2.20;;
69170;SDS011;56279;47.902;12.308;2024-02-21T00:06:10;7.97;;;2.67;;
69170;SDS011;56279;47.902;12.308;2024-02-21T00:08:11;3.88;;;2.30;;
69170;SDS011;56279;47.902;12.308;2024-02-21T00:10:12;5.85;;;2.45;;
69170;SDS011;56279;47.902;12.308;2024-02-21T00:12:14;7.35;;;2.60;;
69170;SDS011;56279;47.902;12.308;2024-02-21T00:14:16;10.20;;;2.58;;
69170;SDS011;56279;47.902;12.308;2024-02-21T00:16:17;5.05;;;2.22;;
69170;SDS011;56279;47.902;12.308;2024-02-21T00:18:19;5.10;;;2.30;;
69170;SDS011;56279;47.902;12.308;2024-02-21T00:20:21;4.85;;;2.13;;
69170;SDS011;56279;47.902;12.308;2024-02-21T00:22:26;4.88;;;2.00;;
69170;SDS011;56279;47.902;12.308;2024-02-21T00:24:30;4.65;;;1.98;;
69170;SDS011;56279;47.902;12.308;2024-02-21T00:26:31;5.07;;;2.13;;
69170;SDS011;56279;47.902;12.308;2024-02-21T00:28:33;6.22;;;2.30;;
69170;SDS011;56279;47.902;12.308;2024-02-21T00:30:35;4.18;;;2.17;;
69170;SDS011;56279;47.902;12.308;2024-02-21T00:32:39;5.80;;;2.28;;
69170;SDS011;56279;47.902;12.308;2024-02-21T00:34:40;7.10;;;2.60;;
69170;SDS011;56279;47.902;12.308;2024-02-21T00:36:41;5.82;;;2.22;;
69170;SDS011;56279;47.902;12.308;2024-02-21T00:38:44;5.57;;;2.65;;
69170;SDS011;56279;47.902;12.308;2024-02-21T00:40:47;6.40;;;2.72;;
69170;SDS011;56279;47.902;12.308;2024-02-21T00:42:49;8.43;;;3.40;;
69170;SDS011;56279;47.902;12.308;2024-02-21T00:44:51;6.53;;;3.28;;
69170;SDS011;56279;47.902;12.308;2024-02-21T00:46:53;7.60;;;2.53;;
69170;SDS011;56279;47.902;12.308;2024-02-21T00:48:54;8.82;;;3.15;;
69170;SDS011;56279;47.902;12.308;2024-02-21T00:50:55;7.05;;;2.70;;
69170;SDS011;56279;47.902;12.308;2024-02-21T00:52:59;8.70;;;3.78;;
69170;SDS011;56279;47.902;12.308;2024-02-21T00:55:00;6.65;;;2.72;;
69170;SDS011;56279;47.902;12.308;2024-02-21T00:57:02;5.90;;;2.10;;
69170;SDS011;56279;47.902;12.308;2024-02-21T00:59:03;3.92;;;2.13;;
69170;SDS011;56279;47.902;12.308;2024-02-21T01:01:05;4.72;;;1.90;;
69170;SDS011;56279;47.902;12.308;2024-02-21T01:03:06;3.65;;;1.88;;
69170;SDS011;56279;47.902;12.308;2024-02-21T01:05:07;4.85;;;2.20;;
69170;SDS011;56279;47.902;12.308;2024-02-21T01:07:09;3.25;;;1.75;;
69170;SDS011;56279;47.902;12.308;2024-02-21T01:09:10;4.40;;;1.70;;
69170;SDS011;56279;47.902;12.308;2024-02-21T01:11:12;3.25;;;1.70;;
69170;SDS011;56279;47.902;12.308;2024-02-21T01:13:13;2.88;;;1.60;;
69170;SDS011;56279;47.902;12.308;2024-02-21T01:15:15;6.10;;;1.63;;
69170;SDS011;56279;47.902;12.308;2024-02-21T01:17:18;3.25;;;1.60;;
69170;SDS011;56279;47.902;12.308;2024-02-21T01:19:19;4.18;;;1.52;;
69170;SDS011;56279;47.902;12.308;2024-02-21T01:21:21;3.97;;;1.40;;
69170;SDS011;56279;47.902;12.308;2024-02-21T01:23:24;4.07;;;1.58;;
69170;SDS011;56279;47.902;12.308;2024-02-21T01:25:25;3.42;;;1.60;;
69170;SDS011;56279;47.902;12.308;2024-02-21T01:27:26;8.30;;;3.85;;
69170;SDS011;56279;47.902;12.308;2024-02-21T01:29:27;11.57;;;4.97;;
69170;SDS011;56279;47.902;12.308;2024-02-21T01:31:29;16.85;;;7.90;;
69170;SDS011;56279;47.902;12.308;2024-02-21T01:33:30;13.75;;;5.75;;
69170;SDS011;56279;47.902;12.308;2024-02-21T01:35:36;12.98;;;5.72;;
69170;SDS011;56279;47.902;12.308;2024-02-21T01:37:38;8.43;;;4.32;;
69170;SDS011;56279;47.902;12.308;2024-02-21T01:39:39;11.27;;;4.25;;
69170;SDS011;56279;47.902;12.308;2024-02-21T01:41:42;8.13;;;3.70;;
69170;SDS011;56279;47.902;12.308;2024-02-21T01:43:43;10.57;;;3.13;;
69170;SDS011;56279;47.902;12.308;2024-02-21T01:45:47;4.28;;;2.25;;
69170;SDS011;56279;47.902;12.308;2024-02-21T01:47:51;4.88;;;2.00;;
69170;SDS011;56279;47.902;12.308;2024-02-21T01:49:52;3.10;;;1.60;;
69170;SDS011;56279;47.902;12.308;2024-02-21T01:51:56;5.70;;;1.80;;
69170;SDS011;56279;47.902;12.308;2024-02-21T01:53:58;5.40;;;2.00;;
69170;SDS011;56279;47.902;12.308;2024-02-21T01:55:59;6.78;;;2.70;;
69170;SDS011;56279;47.902;12.308;2024-02-21T01:58:01;7.55;;;3.17;;
69170;SDS011;56279;47.902;12.308;2024-02-21T02:00:03;7.00;;;2.80;;
69170;SDS011;56279;47.902;12.308;2024-02-21T02:02:11;6.43;;;3.20;;
69170;SDS011;56279;47.902;12.308;2024-02-21T02:04:14;6.78;;;2.90;;
69170;SDS011;56279;47.902;12.308;2024-02-21T02:06:15;6.03;;;2.90;;
69170;SDS011;56279;47.902;12.308;2024-02-21T02:08:18;9.10;;;3.75;;
69170;SDS011;56279;47.902;12.308;2024-02-21T02:10:20;10.05;;;5.03;;
69170;SDS011;56279;47.902;12.308;2024-02-21T02:12:21;9.43;;;4.93;;
69170;SDS011;56279;47.902;12.308;2024-02-21T02:14:25;6.25;;;3.60;;
69170;SDS011;56279;47.902;12.308;2024-02-21T02:16:26;9.73;;;4.15;;
69170;SDS011;56279;47.902;12.308;2024-02-21T02:18:27;10.50;;;3.17;;
69170;SDS011;56279;47.902;12.308;2024-02-21T02:20:29;6.68;;;3.35;;
69170;SDS011;56279;47.902;12.308;2024-02-21T02:22:30;7.05;;;3.30;;
69170;SDS011;56279;47.902;12.308;2024-02-21T02:24:36;5.97;;;3.05;;
69170;SDS011;56279;47.902;12.308;2024-02-21T02:26:37;6.00;;;3.00;;
69170;SDS011;56279;47.902;12.308;2024-02-21T02:28:39;5.88;;;2.60;;
69170;SDS011;56279;47.902;12.308;2024-02-21T02:30:40;7.05;;;2.72;;
69170;SDS011;56279;47.902;12.308;2024-02-21T02:32:45;6.82;;;2.83;;
69170;SDS011;56279;47.902;12.308;2024-02-21T02:34:49;5.68;;;2.55;;
69170;SDS011;56279;47.902;12.308;2024-02-21T02:36:50;6.45;;;2.40;;
69170;SDS011;56279;47.902;12.308;2024-02-21T02:38:51;6.40;;;2.38;;
69170;SDS011;56279;47.902;12.308;2024-02-21T02:40:53;7.22;;;2.20;;
69170;SDS011;56279;47.902;12.308;2024-02-21T02:42:54;5.45;;;2.13;;
69170;SDS011;56279;47.902;12.308;2024-02-21T02:44:56;4.70;;;2.03;;
69170;SDS011;56279;47.902;12.308;2024-02-21T02:46:58;6.10;;;2.50;;
69170;SDS011;56279;47.902;12.308;2024-02-21T02:48:59;3.63;;;1.90;;
69170;SDS011;56279;47.902;12.308;2024-02-21T02:51:00;4.22;;;2.05;;
69170;SDS011;56279;47.902;12.308;2024-02-21T02:53:04;6.95;;;2.10;;
69170;SDS011;56279;47.902;12.308;2024-02-21T02:55:06;3.83;;;1.98;;
69170;SDS011;56279;47.902;12.308;2024-02-21T02:57:08;3.55;;;2.05;;
69170;SDS011;56279;47.902;12.308;2024-02-21T02:59:09;4.13;;;1.88;;
69170;SDS011;56279;47.902;12.308;2024-02-21T03:01:10;5.03;;;2.17;;
69170;SDS011;56279;47.902;12.308;2024-02-21T03:03:11;7.63;;;1.85;;
69170;SDS011;56279;47.902;12.308;2024-02-21T03:05:17;4.47;;;1.60;;
69170;SDS011;56279;47.902;12.308;2024-02-21T03:07:21;4.13;;;1.95;;
69170;SDS011;56279;47.902;12.308;2024-02-21T03:09:22;7.10;;;2.20;;
69170;SDS011;56279;47.902;12.308;2024-02-21T03:11:23;4.05;;;2.47;;
69170;SDS011;56279;47.902;12.308;2024-02-21T03:13:29;5.15;;;2.30;;
69170;SDS011;56279;47.902;12.308;2024-02-21T03:15:31;5.82;;;2.00;;
69170;SDS011;56279;47.902;12.308;2024-02-21T03:17:33;4.63;;;2.10;;
69170;SDS011;56279;47.902;12.308;2024-02-21T03:19:37;5.32;;;1.85;;
69170;SDS011;56279;47.902;12.308;2024-02-21T03:21:38;4.25;;;1.73;;
69170;SDS011;56279;47.902;12.308;2024-02-21T03:23:40;5.00;;;2.03;;
69170;SDS011;56279;47.902;12.308;2024-02-21T03:25:41;4.82;;;2.10;;
69170;SDS011;56279;47.902;12.308;2024-02-21T03:27:42;5.13;;;1.88;;
69170;SDS011;56279;47.902;12.308;2024-02-21T03:29:44;4.40;;;2.03;;
69170;SDS011;56279;47.902;12.308;2024-02-21T03:31:45;5.60;;;2.00;;
69170;SDS011;56279;47.902;12.308;2024-02-21T03:33:46;4.13;;;1.77;;
69170;SDS011;56279;47.902;12.308;2024-02-21T03:35:47;4.47;;;2.00;;
69170;SDS011;56279;47.902;12.308;2024-02-21T03:37:49;5.65;;;2.20;;
69170;SDS011;56279;47.902;12.308;2024-02-21T03:39:50;3.97;;;1.90;;
69170;SDS011;56279;47.902;12.308;2024-02-21T03:41:52;8.30;;;2.20;;
69170;SDS011;56279;47.902;12.308;2024-02-21T03:43:54;6.00;;;1.90;;
69170;SDS011;56279;47.902;12.308;2024-02-21T03:45:55;4.57;;;2.08;;
69170;SDS011;56279;47.902;12.308;2024-02-21T03:47:57;6.07;;;2.30;;
69170;SDS011;56279;47.902;12.308;2024-02-21T03:50:00;5.70;;;2.00;;
69170;SDS011;56279;47.902;12.308;2024-02-21T03:52:01;5.68;;;2.20;;
69170;SDS011;56279;47.902;12.308;2024-02-21T03:54:04;4.70;;;1.60;;
69170;SDS011;56279;47.902;12.308;2024-02-21T03:56:05;4.55;;;1.70;;
69170;SDS011;56279;47.902;12.308;2024-02-21T03:58:06;2.70;;;1.50;;
69170;SDS011;56279;47.902;12.308;2024-02-21T04:00:08;4.43;;;1.40;;
69170;SDS011;56279;47.902;12.308;2024-02-21T04:02:11;3.67;;;1.77;;
69170;SDS011;56279;47.902;12.308;2024-02-21T04:04:14;3.80;;;1.50;;
69170;SDS011;56279;47.902;12.308;2024-02-21T04:06:15;3.28;;;1.75;;
69170;SDS011;56279;47.902;12.308;2024-02-21T04:08:17;5.35;;;1.60;;
69170;SDS011;56279;47.902;12.308;2024-02-21T04:10:19;2.72;;;1.40;;
69170;SDS011;56279;47.902;12.308;2024-02-21T04:12:20;3.40;;;1.80;;
69170;SDS011;56279;47.902;12.308;2024-02-21T04:14:21;2.97;;;1.58;;
69170;SDS011;56279;47.902;12.308;2024-02-21T04:16:23;2.15;;;1.33;;
69170;SDS011;56279;47.902;12.308;2024-02-21T04:18:25;3.05;;;1.70;;
69170;SDS011;56279;47.902;12.308;2024-02-21T04:20:27;3.58;;;1.60;;
69170;SDS011;56279;47.902;12.308;2024-02-21T04:22:28;6.53;;;1.98;;
69170;SDS011;56279;47.902;12.308;2024-02-21T04:24:29;2.85;;;1.63;;
69170;SDS011;56279;47.902;12.308;2024-02-21T04:26:30;3.80;;;1.75;;
69170;SDS011;56279;47.902;12.308;2024-02-21T04:28:32;3.90;;;1.73;;
69170;SDS011;56279;47.902;12.308;2024-02-21T04:30:34;4.72;;;1.88;;
69170;SDS011;56279;47.902;12.308;2024-02-21T04:32:36;2.60;;;1.65;;
69170;SDS011;56279;47.902;12.308;2024-02-21T04:34:37;3.92;;;1.63;;
69170;SDS011;56279;47.902;12.308;2024-02-21T04:36:40;3.38;;;1.83;;
69170;SDS011;56279;47.902;12.308;2024-02-21T04:38:41;5.03;;;1.95;;
69170;SDS011;56279;47.902;12.308;2024-02-21T04:40:43;4.30;;;2.08;;
69170;SDS011;56279;47.902;12.308;2024-02-21T04:42:44;4.55;;;1.95;;
69170;SDS011;56279;47.902;12.308;2024-02-21T04:44:46;4.13;;;2.00;;
69170;SDS011;56279;47.902;12.308;2024-02-21T04:46:47;4.15;;;1.77;;
69170;SDS011;56279;47.902;12.308;2024-02-21T04:48:49;5.20;;;2.00;;
69170;SDS011;56279;47.902;12.308;2024-02-21T04:50:50;4.07;;;1.80;;
69170;SDS011;56279;47.902;12.308;2024-02-21T04:52:51;5.78;;;1.83;;
69170;SDS011;56279;47.902;12.308;2024-02-21T04:54:53;6.10;;;2.17;;
69170;SDS011;56279;47.902;12.308;2024-02-21T04:56:54;5.03;;;2.15;;
69170;SDS011;56279;47.902;12.308;2024-02-21T04:58:55;3.80;;;1.80;;
69170;SDS011;56279;47.902;12.308;2024-02-21T05:00:58;5.97;;;1.90;;
69170;SDS011;56279;47.902;12.308;2024-02-21T05:03:01;4.88;;;2.05;;
69170;SDS011;56279;47.902;12.308;2024-02-21T05:05:04;6.55;;;1.90;;
69170;SDS011;56279;47.902;12.308;2024-02-21T05:07:06;3.80;;;1.83;;
69170;SDS011;56279;47.902;12.308;2024-02-21T05:09:08;4.22;;;2.20;;
69170;SDS011;56279;47.902;12.308;2024-02-21T05:11:10;4.25;;;2.22;;
69170;SDS011;56279;47.902;12.308;2024-02-21T05:13:11;4.35;;;1.90;;
69170;SDS011;56279;47.902;12.308;2024-02-21T05:15:12;5.90;;;1.88;;
69170;SDS011;56279;47.902;12.308;2024-02-21T05:17:14;6.90;;;1.85;;
69170;SDS011;56279;47.902;12.308;2024-02-21T05:19:16;5.30;;;1.80;;
69170;SDS011;56279;47.902;12.308;2024-02-21T05:21:17;4.72;;;1.85;;
69170;SDS011;56279;47.902;12.308;2024-02-21T05:23:19;6.45;;;2.30;;
69170;SDS011;56279;47.902;12.308;2024-02-21T05:25:20;3.75;;;1.80;;
69170;SDS011;56279;47.902;12.308;2024-02-21T05:27:21;3.45;;;2.10;;
69170;SDS011;56279;47.902;12.308;2024-02-21T05:29:22;4.95;;;2.20;;
69170;SDS011;56279;47.902;12.308;2024-02-21T05:31:24;3.25;;;2.00;;
69170;SDS011;56279;47.902;12.308;2024-02-21T05:33:25;5.93;;;2.50;;
69170;SDS011;56279;47.902;12.308;2024-02-21T05:35:27;4.82;;;1.83;;
69170;SDS011;56279;47.902;12.308;2024-02-21T05:37:28;4.20;;;1.73;;
69170;SDS011;56279;47.902;12.308;2024-02-21T05:39:30;6.40;;;1.90;;
69170;SDS011;56279;47.902;12.308;2024-02-21T05:41:32;4.20;;;1.60;;
69170;SDS011;56279;47.902;12.308;2024-02-21T05:43:33;3.55;;;1.70;;
69170;SDS011;56279;47.902;12.308;2024-02-21T05:45:35;2.42;;;1.50;;
69170;SDS011;56279;47.902;12.308;2024-02-21T05:47:36;5.45;;;1.63;;
69170;SDS011;56279;47.902;12.308;2024-02-21T05:49:37;6.28;;;1.70;;
69170;SDS011;56279;47.902;12.308;2024-02-21T05:51:38;4.43;;;1.92;;
69170;SDS011;56279;47.902;12.308;2024-02-21T05:53:40;2.13;;;1.50;;
69170;SDS011;56279;47.902;12.308;2024-02-21T05:58:00;3.17;;;1.50;;
69170;SDS011;56279;47.902;12.308;2024-02-21T06:00:03;3.90;;;1.58;;
69170;SDS011;56279;47.902;12.308;2024-02-21T06:02:13;3.08;;;1.92;;
69170;SDS011;56279;47.902;12.308;2024-02-21T06:04:15;2.28;;;1.25;;
69170;SDS011;56279;47.902;12.308;2024-02-21T06:06:16;2.83;;;1.45;;
69170;SDS011;56279;47.902;12.308;2024-02-21T06:08:19;4.05;;;1.70;;
69170;SDS011;56279;47.902;12.308;2024-02-21T06:10:21;4.03;;;1.55;;
69170;SDS011;56279;47.902;12.308;2024-02-21T06:12:22;2.65;;;1.58;;
69170;SDS011;56279;47.902;12.308;2024-02-21T06:14:23;3.78;;;1.60;;
69170;SDS011;56279;47.902;12.308;2024-02-21T06:16:25;4.00;;;1.35;;
69170;SDS011;56279;47.902;12.308;2024-02-21T06:18:26;2.80;;;1.40;;
69170;SDS011;56279;47.902;12.308;2024-02-21T06:20:27;3.53;;;1.38;;
69170;SDS011;56279;47.902;12.308;2024-02-21T06:22:29;1.90;;;1.30;;
69170;SDS011;56279;47.902;12.308;2024-02-21T06:24:31;2.10;;;1.40;;
69170;SDS011;56279;47.902;12.308;2024-02-21T06:26:32;3.10;;;1.20;;
69170;SDS011;56279;47.902;12.308;2024-02-21T06:28:34;3.33;;;1.30;;
69170;SDS011;56279;47.902;12.308;2024-02-21T06:30:35;3.03;;;1.63;;
69170;SDS011;56279;47.902;12.308;2024-02-21T06:32:37;2.40;;;1.25;;
69170;SDS011;56279;47.902;12.308;2024-02-21T06:34:39;1.90;;;1.20;;
69170;SDS011;56279;47.902;12.308;2024-02-21T06:36:41;3.13;;;1.50;;
69170;SDS011;56279;47.902;12.308;2024-02-21T06:38:44;4.80;;;1.40;;
69170;SDS011;56279;47.902;12.308;2024-02-21T06:44:27;1.70;;;1.15;;
69170;SDS011;56279;47.902;12.308;2024-02-21T06:46:29;2.85;;;1.50;;
69170;SDS011;56279;47.902;12.308;2024-02-21T06:48:31;2.08;;;1.20;;
69170;SDS011;56279;47.902;12.308;2024-02-21T06:50:42;1.80;;;1.17;;
69170;SDS011;56279;47.902;12.308;2024-02-21T06:52:44;3.08;;;1.50;;
69170;SDS011;56279;47.902;12.308;2024-02-21T06:54:46;3.28;;;1.23;;
69170;SDS011;56279;47.902;12.308;2024-02-21T06:56:50;3.05;;;1.40;;
69170;SDS011;56279;47.902;12.308;2024-02-21T06:58:52;2.15;;;1.30;;
69170;SDS011;56279;47.902;12.308;2024-02-21T07:00:53;2.83;;;1.00;;
69170;SDS011;56279;47.902;12.308;2024-02-21T07:02:55;2.42;;;1.30;;
69170;SDS011;56279;47.902;12.308;2024-02-21T07:05:00;1.70;;;1.20;;
69170;SDS011;56279;47.902;12.308;2024-02-21T07:07:01;3.25;;;1.50;;
69170;SDS011;56279;47.902;12.308;2024-02-21T07:09:03;2.90;;;1.30;;
69170;SDS011;56279;47.902;12.308;2024-02-21T07:15:06;2.33;;;1.33;;
69170;SDS011;56279;47.902;12.308;2024-02-21T07:21:04;2.95;;;1.33;;
69170;SDS011;56279;47.902;12.308;2024-02-21T07:26:52;2.33;;;1.33;;
69170;SDS011;56279;47.902;12.308;2024-02-21T07:28:57;3.15;;;1.20;;
69170;SDS011;56279;47.902;12.308;2024-02-21T07:30:59;1.63;;;1.27;;
69170;SDS011;56279;47.902;12.308;2024-02-21T07:33:01;2.30;;;1.30;;
69170;SDS011;56279;47.902;12.308;2024-02-21T07:35:04;3.42;;;1.50;;
69170;SDS011;56279;47.902;12.308;2024-02-21T07:37:06;5.53;;;1.50;;
69170;SDS011;56279;47.902;12.308;2024-02-21T07:39:08;2.70;;;1.48;;
69170;SDS011;56279;47.902;12.308;2024-02-21T07:41:10;2.53;;;1.50;;
69170;SDS011;56279;47.902;12.308;2024-02-21T07:43:11;2.58;;;1.52;;
69170;SDS011;56279;47.902;12.308;2024-02-21T07:45:15;1.88;;;1.30;;
69170;SDS011;56279;47.902;12.308;2024-02-21T07:48:13;2.50;;;1.20;;
69170;SDS011;56279;47.902;12.308;2024-02-21T07:53:48;2.22;;;1.33;;
69170;SDS011;56279;47.902;12.308;2024-02-21T07:57:23;1.73;;;1.23;;
69170;SDS011;56279;47.902;12.308;2024-02-21T08:07:57;5.47;;;1.60;;
69170;SDS011;56279;47.902;12.308;2024-02-21T08:10:32;8.07;;;3.03;;
69170;SDS011;56279;47.902;12.308;2024-02-21T08:12:34;6.55;;;2.83;;
69170;SDS011;56279;47.902;12.308;2024-02-21T08:14:36;5.10;;;2.80;;
69170;SDS011;56279;47.902;12.308;2024-02-21T08:16:38;6.85;;;3.10;;
69170;SDS011;56279;47.902;12.308;2024-02-21T08:18:43;5.63;;;2.47;;
69170;SDS011;56279;47.902;12.308;2024-02-21T08:20:45;3.97;;;2.08;;
69170;SDS011;56279;47.902;12.308;2024-02-21T08:22:46;4.85;;;2.20;;
69170;SDS011;56279;47.902;12.308;2024-02-21T08:24:47;5.82;;;2.20;;
69170;SDS011;56279;47.902;12.308;2024-02-21T08:26:50;5.60;;;2.15;;
69170;SDS011;56279;47.902;12.308;2024-02-21T08:28:51;5.65;;;2.20;;
69170;SDS011;56279;47.902;12.308;2024-02-21T08:30:52;18.27;;;2.90;;
69170;SDS011;56279;47.902;12.308;2024-02-21T08:32:54;7.25;;;2.53;;
69170;SDS011;56279;47.902;12.308;2024-02-21T08:34:55;4.40;;;2.10;;
69170;SDS011;56279;47.902;12.308;2024-02-21T08:36:58;5.40;;;2.28;;
69170;SDS011;56279;47.902;12.308;2024-02-21T08:39:00;5.25;;;2.38;;
69170;SDS011;56279;47.902;12.308;2024-02-21T08:41:06;4.65;;;2.47;;
69170;SDS011;56279;47.902;12.308;2024-02-21T08:43:07;6.53;;;3.28;;
69170;SDS011;56279;47.902;12.308;2024-02-21T08:45:08;4.65;;;2.50;;
69170;SDS011;56279;47.902;12.308;2024-02-21T08:47:10;4.85;;;1.95;;
69170;SDS011;56279;47.902;12.308;2024-02-21T08:49:12;6.93;;;1.98;;
69170;SDS011;56279;47.902;12.308;2024-02-21T08:51:14;5.20;;;2.30;;
69170;SDS011;56279;47.902;12.308;2024-02-21T08:53:16;5.70;;;2.55;;
69170;SDS011;56279;47.902;12.308;2024-02-21T08:55:17;4.88;;;2.03;;
69170;SDS011;56279;47.902;12.308;2024-02-21T08:57:19;4.45;;;2.25;;
69170;SDS011;56279;47.902;12.308;2024-02-21T08:59:20;5.00;;;1.95;;
69170;SDS011;56279;47.902;12.308;2024-02-21T09:01:23;10.10;;;2.42;;
69170;SDS011;56279;47.902;12.308;2024-02-21T09:03:24;5.38;;;2.30;;
69170;SDS011;56279;47.902;12.308;2024-02-21T09:05:26;6.20;;;2.67;;
69170;SDS011;56279;47.902;12.308;2024-02-21T09:07:27;4.30;;;2.20;;
69170;SDS011;56279;47.902;12.308;2024-02-21T09:09:29;6.57;;;2.30;;
69170;SDS011;56279;47.902;12.308;2024-02-21T09:11:31;5.30;;;2.15;;
69170;SDS011;56279;47.902;12.308;2024-02-21T09:13:32;6.43;;;2.10;;
69170;SDS011;56279;47.902;12.308;2024-02-21T09:15:35;5.47;;;2.38;;
69170;SDS011;56279;47.902;12.308;2024-02-21T09:17:36;6.60;;;2.42;;
69170;SDS011;56279;47.902;12.308;2024-02-21T09:19:40;6.50;;;2.80;;
69170;SDS011;56279;47.902;12.308;2024-02-21T09:21:41;4.10;;;2.10;;
69170;SDS011;56279;47.902;12.308;2024-02-21T09:23:43;3.47;;;2.00;;
69170;SDS011;56279;47.902;12.308;2024-02-21T09:25:45;3.95;;;1.90;;
69170;SDS011;56279;47.902;12.308;2024-02-21T09:27:47;2.40;;;1.60;;
69170;SDS011;56279;47.902;12.308;2024-02-21T09:29:48;4.18;;;1.60;;
69170;SDS011;56279;47.902;12.308;2024-02-21T09:31:49;4.45;;;1.90;;
69170;SDS011;56279;47.902;12.308;2024-02-21T09:33:51;3.90;;;1.92;;
69170;SDS011;56279;47.902;12.308;2024-02-21T09:35:52;3.55;;;1.77;;
69170;SDS011;56279;47.902;12.308;2024-02-21T09:37:54;4.50;;;2.10;;
69170;SDS011;56279;47.902;12.308;2024-02-21T09:39:55;4.53;;;1.77;;
69170;SDS011;56279;47.902;12.308;2024-02-21T09:41:59;3.85;;;1.83;;
69170;SDS011;56279;47.902;12.308;2024-02-21T09:44:04;2.70;;;1.80;;
69170;SDS011;56279;47.902;12.308;2024-02-21T09:46:06;3.30;;;1.73;;
69170;SDS011;56279;47.902;12.308;2024-02-21T09:50:41;5.13;;;2.10;;
69170;SDS011;56279;47.902;12.308;2024-02-21T09:52:45;5.28;;;2.10;;
69170;SDS011;56279;47.902;12.308;2024-02-21T09:54:47;4.25;;;1.73;;
69170;SDS011;56279;47.902;12.308;2024-02-21T09:56:50;3.33;;;1.90;;
69170;SDS011;56279;47.902;12.308;2024-02-21T09:58:52;6.15;;;1.70;;
69170;SDS011;56279;47.902;12.308;2024-02-21T10:00:55;4.38;;;1.52;;
69170;SDS011;56279;47.902;12.308;2024-02-21T10:02:58;6.13;;;1.60;;
69170;SDS011;56279;47.902;12.308;2024-02-21T10:05:02;2.83;;;1.17;;
69170;SDS011;56279;47.902;12.308;2024-02-21T10:07:05;2.95;;;1.50;;
69170;SDS011;56279;47.902;12.308;2024-02-21T10:09:08;3.30;;;1.90;;
69170;SDS011;56279;47.902;12.308;2024-02-21T10:11:09;9.02;;;3.13;;
69170;SDS011;56279;47.902;12.308;2024-02-21T10:13:21;2.60;;;1.60;;
69170;SDS011;56279;47.902;12.308;2024-02-21T10:15:25;3.15;;;1.50;;
69170;SDS011;56279;47.902;12.308;2024-02-21T10:17:26;2.35;;;1.40;;
69170;SDS011;56279;47.902;12.308;2024-02-21T10:19:28;3.20;;;1.48;;
69170;SDS011;56279;47.902;12.308;2024-02-21T10:21:30;2.83;;;1.48;;
69170;SDS011;56279;47.902;12.308;2024-02-21T10:23:47;2.75;;;1.42;;
69170;SDS011;56279;47.902;12.308;2024-02-21T10:25:50;2.95;;;1.55;;
69170;SDS011;56279;47.902;12.308;2024-02-21T10:27:52;2.33;;;1.63;;
69170;SDS011;56279;47.902;12.308;2024-02-21T10:29:54;2.75;;;1.17;;
69170;SDS011;56279;47.902;12.308;2024-02-21T10:32:06;2.72;;;1.25;;
69170;SDS011;56279;47.902;12.308;2024-02-21T10:34:12;1.85;;;1.15;;
69170;SDS011;56279;47.902;12.308;2024-02-21T10:36:18;2.75;;;1.30;;
69170;SDS011;56279;47.902;12.308;2024-02-21T10:38:20;3.70;;;1.33;;
69170;SDS011;56279;47.902;12.308;2024-02-21T10:40:24;3.03;;;1.30;;
69170;SDS011;56279;47.902;12.308;2024-02-21T10:42:30;1.75;;;1.35;;
69170;SDS011;56279;47.902;12.308;2024-02-21T10:44:34;1.73;;;1.10;;
69170;SDS011;56279;47.902;12.308;2024-02-21T10:46:39;2.10;;;1.40;;
69170;SDS011;56279;47.902;12.308;2024-02-21T10:48:43;2.93;;;1.67;;
69170;SDS011;56279;47.902;12.308;2024-02-21T10:51:02;2.63;;;1.48;;
69170;SDS011;56279;47.902;12.308;2024-02-21T10:55:20;2.90;;;1.02;;
69170;SDS011;56279;47.902;12.308;2024-02-21T10:57:27;2.65;;;1.40;;
69170;SDS011;56279;47.902;12.308;2024-02-21T10:59:31;3.03;;;1.30;;
69170;SDS011;56279;47.902;12.308;2024-02-21T11:01:34;1.83;;;1.30;;
69170;SDS011;56279;47.902;12.308;2024-02-21T11:03:39;1.80;;;1.20;;
69170;SDS011;56279;47.902;12.308;2024-02-21T11:05:42;2.08;;;1.30;;
69170;SDS011;56279;47.902;12.308;2024-02-21T11:07:46;2.78;;;1.80;;
69170;SDS011;56279;47.902;12.308;2024-02-21T11:09:50;2.00;;;1.23;;
69170;SDS011;56279;47.902;12.308;2024-02-21T11:11:56;2.75;;;1.60;;
69170;SDS011;56279;47.902;12.308;2024-02-21T11:14:18;3.03;;;1.70;;
69170;SDS011;56279;47.902;12.308;2024-02-21T11:16:21;2.47;;;1.33;;
69170;SDS011;56279;47.902;12.308;2024-02-21T11:18:23;2.42;;;1.33;;
69170;SDS011;56279;47.902;12.308;2024-02-21T11:20:34;1.60;;;1.13;;
69170;SDS011;56279;47.902;12.308;2024-02-21T11:22:40;1.88;;;1.23;;
69170;SDS011;56279;47.902;12.308;2024-02-21T11:24:43;2.10;;;1.30;;
69170;SDS011;56279;47.902;12.308;2024-02-21T11:26:46;2.83;;;1.10;;
69170;SDS011;56279;47.902;12.308;2024-02-21T11:28:59;1.83;;;1.20;;
69170;SDS011;56279;47.902;12.308;2024-02-21T11:31:07;2.03;;;1.20;;
69170;SDS011;56279;47.902;12.308;2024-02-21T11:33:10;1.88;;;1.23;;
69170;SDS011;56279;47.902;12.308;2024-02-21T11:35:19;1.67;;;1.15;;
69170;SDS011;56279;47.902;12.308;2024-02-21T11:37:20;2.13;;;1.17;;
69170;SDS011;56279;47.902;12.308;2024-02-21T11:39:23;2.30;;;1.10;;
69170;SDS011;56279;47.902;12.308;2024-02-21T11:41:27;1.97;;;1.07;;
69170;SDS011;56279;47.902;12.308;2024-02-21T11:43:28;1.23;;;1.00;;
69170;SDS011;56279;47.902;12.308;2024-02-21T11:45:29;1.63;;;1.00;;
69170;SDS011;56279;47.902;12.308;2024-02-21T11:47:33;2.75;;;1.30;;
69170;SDS011;56279;47.902;12.308;2024-02-21T11:49:37;1.67;;;1.20;;
69170;SDS011;56279;47.902;12.308;2024-02-21T11:51:44;1.80;;;1.10;;
69170;SDS011;56279;47.902;12.308;2024-02-21T11:53:45;2.83;;;1.10;;
69170;SDS011;56279;47.902;12.308;2024-02-21T11:55:46;1.75;;;1.05;;
69170;SDS011;56279;47.902;12.308;2024-02-21T11:57:47;2.88;;;1.17;;
69170;SDS011;56279;47.902;12.308;2024-02-21T11:59:50;1.17;;;1.08;;
69170;SDS011;56279;47.902;12.308;2024-02-21T12:01:53;1.17;;;1.00;;
69170;SDS011;56279;47.902;12.308;2024-02-21T12:03:54;2.35;;;1.20;;
69170;SDS011;56279;47.902;12.308;2024-02-21T12:05:59;2.97;;;1.30;;
69170;SDS011;56279;47.902;12.308;2024-02-21T12:08:00;1.88;;;1.20;;
69170;SDS011;56279;47.902;12.308;2024-02-21T12:10:02;2.25;;;1.30;;
69170;SDS011;56279;47.902;12.308;2024-02-21T12:12:06;1.93;;;1.30;;
69170;SDS011;56279;47.902;12.308;2024-02-21T12:14:08;2.20;;;1.10;;
69170;SDS011;56279;47.902;12.308;2024-02-21T12:16:10;1.90;;;1.20;;
69170;SDS011;56279;47.902;12.308;2024-02-21T12:18:11;1.25;;;1.00;;
69170;SDS011;56279;47.902;12.308;2024-02-21T12:20:12;1.52;;;1.15;;
69170;SDS011;56279;47.902;12.308;2024-02-21T12:22:18;2.40;;;1.10;;
69170;SDS011;56279;47.902;12.308;2024-02-21T12:24:21;1.58;;;1.20;;
69170;SDS011;56279;47.902;12.308;2024-02-21T12:26:24;4.13;;;1.70;;
69170;SDS011;56279;47.902;12.308;2024-02-21T12:28:27;2.53;;;1.30;;
69170;SDS011;56279;47.902;12.308;2024-02-21T12:30:28;1.60;;;1.30;;
69170;SDS011;56279;47.902;12.308;2024-02-21T12:32:31;1.90;;;1.20;;
69170;SDS011;56279;47.902;12.308;2024-02-21T12:34:32;2.15;;;1.02;;
69170;SDS011;56279;47.902;12.308;2024-02-21T12:36:35;2.15;;;1.30;;
69170;SDS011;56279;47.902;12.308;2024-02-21T12:38:37;2.53;;;1.30;;
69170;SDS011;56279;47.902;12.308;2024-02-21T12:40:38;1.67;;;1.20;;
69170;SDS011;56279;47.902;12.308;2024-02-21T12:42:40;1.83;;;0.90;;